createdAt,value
2023-04-23T00:01:59.569Z,3.70
2023-04-23T00:04:26.728Z,3.70
2023-04-23T00:06:53.814Z,3.63
2023-04-23T00:09:26.515Z,3.40
2023-04-23T00:11:53.381Z,3.93
2023-04-23T00:14:20.609Z,3.83
2023-04-23T00:16:47.580Z,3.67
2023-04-23T00:19:14.670Z,3.40
2023-04-23T00:21:41.316Z,3.60
2023-04-23T00:24:08.155Z,3.50
2023-04-23T00:26:34.840Z,3.53
2023-04-23T00:29:01.857Z,3.60
2023-04-23T00:31:29.375Z,3.73
2023-04-23T00:33:56.200Z,3.60
2023-04-23T00:36:23.031Z,3.60
2023-04-23T00:38:50.479Z,3.87
2023-04-23T00:41:17.434Z,3.63
2023-04-23T00:43:44.674Z,3.57
2023-04-23T00:46:11.574Z,3.43
2023-04-23T00:48:38.847Z,3.40
2023-04-23T00:51:06.710Z,3.20
2023-04-23T00:53:34.942Z,3.33
2023-04-23T00:56:02.519Z,3.73
2023-04-23T00:58:29.792Z,3.73
2023-04-23T01:00:56.968Z,3.60
2023-04-23T01:03:25.595Z,3.70
2023-04-23T01:05:53.017Z,4.10
2023-04-23T01:08:21.517Z,4.00
2023-04-23T01:10:49.496Z,4.13
2023-04-23T01:13:16.691Z,4.10
2023-04-23T01:15:44.848Z,4.10
2023-04-23T01:18:14.476Z,3.83
2023-04-23T01:20:41.283Z,4.23
2023-04-23T01:23:08.133Z,4.40
2023-04-23T01:25:35.341Z,3.97
2023-04-23T01:28:02.262Z,3.90
2023-04-23T01:30:29.396Z,3.93
2023-04-23T01:32:56.462Z,3.90
2023-04-23T01:35:23.749Z,4.13
2023-04-23T01:37:51.894Z,4.23
2023-04-23T01:40:19.821Z,3.97
2023-04-23T01:42:46.747Z,3.93
2023-04-23T01:45:13.901Z,4.10
2023-04-23T01:47:42.116Z,3.90
2023-04-23T01:50:09.581Z,4.27
2023-04-23T01:52:36.594Z,4.63
2023-04-23T01:55:03.571Z,4.17
2023-04-23T01:57:30.532Z,4.80
2023-04-23T02:00:04.872Z,4.50
2023-04-23T02:02:39.986Z,4.47
2023-04-23T02:05:22.065Z,4.63
2023-04-23T02:07:50.150Z,4.97
2023-04-23T02:10:17.094Z,4.50
2023-04-23T02:12:44.216Z,4.53
2023-04-23T02:15:11.539Z,5.10
2023-04-23T02:17:40.107Z,5.03
2023-04-23T02:20:10.707Z,5.30
2023-04-23T02:22:41.972Z,5.07
2023-04-23T02:25:09.131Z,5.23
2023-04-23T02:27:36.042Z,5.20
2023-04-23T02:30:03.518Z,5.60
2023-04-23T02:32:30.918Z,5.27
2023-04-23T02:34:59.020Z,5.60
2023-04-23T02:37:26.900Z,5.63
2023-04-23T02:39:53.893Z,5.47
2023-04-23T02:42:20.827Z,5.40
2023-04-23T02:44:47.600Z,5.37
2023-04-23T02:47:14.259Z,5.97
2023-04-23T02:49:40.960Z,5.90
2023-04-23T02:52:07.626Z,6.13
2023-04-23T02:54:34.336Z,5.73
2023-04-23T02:57:01.690Z,6.13
2023-04-23T02:59:28.435Z,5.90
2023-04-23T03:01:55.307Z,6.03
2023-04-23T03:04:22.715Z,6.00
2023-04-23T03:06:50.054Z,6.43
2023-04-23T03:09:16.793Z,6.33
2023-04-23T03:11:43.816Z,6.03
2023-04-23T03:14:12.558Z,6.60
2023-04-23T03:16:39.348Z,6.17
2023-04-23T03:19:06.673Z,6.27
2023-04-23T03:21:33.398Z,6.10
2023-04-23T03:24:00.145Z,6.10
2023-04-23T03:26:26.843Z,6.13
2023-04-23T03:28:53.600Z,6.10
2023-04-23T03:31:20.509Z,6.20
2023-04-23T03:33:47.639Z,6.30
2023-04-23T03:36:18.672Z,6.20
2023-04-23T03:38:45.730Z,6.70
2023-04-23T03:41:12.568Z,7.00
2023-04-23T03:43:39.436Z,6.50
2023-04-23T03:46:19.437Z,6.50
2023-04-23T03:48:46.949Z,6.40
2023-04-23T03:51:21.210Z,7.30
2023-04-23T03:53:49.803Z,6.63
2023-04-23T03:56:28.637Z,7.33
2023-04-23T03:59:11.666Z,6.60
2023-04-23T04:01:38.445Z,7.00
2023-04-23T04:04:05.291Z,6.87
2023-04-23T04:06:33.210Z,7.17
2023-04-23T04:08:59.868Z,7.00
2023-04-23T04:11:26.941Z,7.00
2023-04-23T04:13:53.554Z,7.33
2023-04-23T04:16:20.518Z,6.63
2023-04-23T04:18:47.165Z,7.77
2023-04-23T04:21:13.974Z,7.27
2023-04-23T04:23:40.676Z,6.93
2023-04-23T04:26:08.233Z,6.93
2023-04-23T04:28:36.435Z,6.77
2023-04-23T04:31:07.068Z,6.90
2023-04-23T04:33:35.773Z,7.33
2023-04-23T04:36:02.391Z,7.17
2023-04-23T04:38:29.861Z,7.23
2023-04-23T04:41:00.123Z,6.90
2023-04-23T04:43:27.155Z,7.23
2023-04-23T04:45:53.867Z,6.63
2023-04-23T04:48:20.783Z,7.10
2023-04-23T04:50:47.509Z,6.53
2023-04-23T04:53:14.112Z,6.73
2023-04-23T04:55:41.479Z,6.63
2023-04-23T04:58:08.209Z,6.67
2023-04-23T05:00:35.081Z,6.63
2023-04-23T05:03:01.896Z,6.13
2023-04-23T05:05:28.609Z,6.50
2023-04-23T05:07:55.308Z,6.07
2023-04-23T05:10:22.022Z,6.70
2023-04-23T05:12:48.697Z,6.50
2023-04-23T05:15:15.234Z,6.10
2023-04-23T05:17:42.508Z,6.50
2023-04-23T05:20:14.381Z,6.20
2023-04-23T05:22:42.490Z,5.87
2023-04-23T05:25:10.027Z,6.00
2023-04-23T05:27:36.649Z,5.93
2023-04-23T05:30:04.624Z,5.70
2023-04-23T05:32:31.663Z,6.00
2023-04-23T05:35:00.171Z,5.40
2023-04-23T05:37:26.868Z,5.53
2023-04-23T05:39:53.513Z,6.03
2023-04-23T05:42:20.334Z,5.57
2023-04-23T05:44:47.069Z,5.37
2023-04-23T05:47:14.429Z,5.73
2023-04-23T05:49:41.173Z,6.17
2023-04-23T05:52:07.893Z,5.90
2023-04-23T05:54:34.531Z,5.67
2023-04-23T05:57:01.438Z,5.77
2023-04-23T05:59:28.073Z,5.90
2023-04-23T06:01:54.923Z,5.53
2023-04-23T06:04:21.947Z,5.47
2023-04-23T06:06:48.714Z,5.60
2023-04-23T06:09:15.483Z,5.90
2023-04-23T06:11:42.140Z,5.33
2023-04-23T06:14:08.775Z,5.70
2023-04-23T06:16:35.469Z,5.70
2023-04-23T06:19:03.442Z,5.30
2023-04-23T06:21:30.549Z,5.07
2023-04-23T06:23:57.184Z,5.47
2023-04-23T06:26:23.844Z,5.03
2023-04-23T06:28:52.129Z,4.97
2023-04-23T06:31:29.274Z,5.30
2023-04-23T06:33:55.985Z,5.10
2023-04-23T06:36:22.568Z,5.20
2023-04-23T06:38:49.296Z,5.00
2023-04-23T06:41:15.989Z,5.10
2023-04-23T06:43:42.662Z,4.80
2023-04-23T06:46:20.927Z,4.87
2023-04-23T06:48:47.769Z,5.30
2023-04-23T06:51:14.819Z,5.03
2023-04-23T06:53:41.565Z,4.97
2023-04-23T06:56:08.658Z,5.13
2023-04-23T06:58:35.400Z,5.70
2023-04-23T07:01:11.942Z,5.03
2023-04-23T07:03:39.014Z,5.40
2023-04-23T07:06:05.890Z,5.17
2023-04-23T07:08:32.583Z,5.13
2023-04-23T07:10:59.214Z,5.10
2023-04-23T07:13:25.965Z,5.57
2023-04-23T07:15:52.665Z,5.50
2023-04-23T07:18:20.829Z,5.63
2023-04-23T07:20:47.487Z,5.40
2023-04-23T07:23:14.253Z,5.33
2023-04-23T07:25:41.131Z,5.77
2023-04-23T07:28:07.792Z,5.83
2023-04-23T07:30:34.439Z,6.10
2023-04-23T07:33:01.216Z,5.67
2023-04-23T07:35:28.004Z,5.90
2023-04-23T07:37:56.084Z,5.90
2023-04-23T07:40:23.336Z,5.83
2023-04-23T07:42:50.911Z,5.80
2023-04-23T07:45:18.700Z,5.37
2023-04-23T07:47:46.915Z,5.30
2023-04-23T07:50:14.064Z,5.63
2023-04-23T07:52:40.953Z,5.00
2023-04-23T07:55:08.329Z,4.93
2023-04-23T07:57:34.963Z,5.00
2023-04-23T08:00:02.463Z,5.90
2023-04-23T08:02:38.759Z,5.20
2023-04-23T08:05:07.031Z,4.73
2023-04-23T08:07:33.947Z,4.90
2023-04-23T08:10:04.252Z,5.33
2023-04-23T08:12:31.215Z,5.07
2023-04-23T08:14:58.274Z,5.63
2023-04-23T08:17:31.465Z,5.30
2023-04-23T08:19:58.204Z,4.80
2023-04-23T08:22:24.880Z,5.20
2023-04-23T08:24:51.748Z,5.40
2023-04-23T08:27:18.464Z,5.23
2023-04-23T08:29:45.112Z,4.83
2023-04-23T08:32:11.950Z,5.43
2023-04-23T08:34:38.684Z,4.57
2023-04-23T08:37:05.371Z,5.57
2023-04-23T08:39:34.076Z,4.90
2023-04-23T08:42:20.457Z,4.80
2023-04-23T08:44:47.414Z,4.37
2023-04-23T08:47:17.949Z,4.80
2023-04-23T08:49:46.068Z,4.83
2023-04-23T08:52:17.889Z,4.87
2023-04-23T08:54:49.979Z,5.00
2023-04-23T08:57:18.061Z,4.57
2023-04-23T08:59:46.196Z,4.57
2023-04-23T09:02:14.775Z,4.80
2023-04-23T09:04:41.516Z,4.93
2023-04-23T09:07:11.348Z,4.60
2023-04-23T09:09:39.616Z,4.30
2023-04-23T09:12:07.957Z,4.53
2023-04-23T09:14:34.774Z,4.35
2023-04-23T09:17:03.226Z,4.22
2023-04-23T09:19:30.475Z,4.50
2023-04-23T09:21:58.340Z,4.22
2023-04-23T09:24:26.080Z,4.50
2023-04-23T09:26:53.035Z,4.40
2023-04-23T09:29:23.361Z,3.92
2023-04-23T09:31:51.882Z,3.60
2023-04-23T09:34:22.585Z,4.28
2023-04-23T09:36:51.813Z,4.10
2023-04-23T09:39:22.332Z,3.72
2023-04-23T09:41:51.841Z,4.90
2023-04-23T09:44:19.602Z,5.93
2023-04-23T09:46:46.333Z,3.90
2023-04-23T09:49:13.719Z,4.10
2023-04-23T09:51:48.231Z,4.32
2023-04-23T09:54:23.587Z,6.40
2023-04-23T09:56:52.477Z,4.50
2023-04-23T09:59:35.428Z,4.35
2023-04-23T10:02:11.504Z,3.83
2023-04-23T10:04:38.592Z,4.20
2023-04-23T10:07:18.850Z,3.88
2023-04-23T10:09:47.107Z,3.78
2023-04-23T10:14:45.225Z,3.67
2023-04-23T10:17:12.247Z,3.92
2023-04-23T10:19:41.562Z,4.30
2023-04-23T10:22:19.306Z,4.28
2023-04-23T10:24:52.697Z,4.05
2023-04-23T10:29:51.152Z,3.92
2023-04-23T10:32:17.793Z,4.10
2023-04-23T10:34:44.899Z,3.75
2023-04-23T10:37:12.132Z,3.90
2023-04-23T10:39:38.924Z,3.78
2023-04-23T10:42:05.960Z,3.88
2023-04-23T10:47:06.957Z,4.10
2023-04-23T10:49:34.342Z,4.03
2023-04-23T10:52:20.084Z,4.13
2023-04-23T10:54:49.866Z,3.70
2023-04-23T10:57:16.613Z,3.78
2023-04-23T10:59:54.678Z,3.67
2023-04-23T11:02:24.117Z,3.60
2023-04-23T11:04:57.175Z,3.78
2023-04-23T11:07:31.654Z,3.60
2023-04-23T11:10:12.290Z,3.63
2023-04-23T11:12:39.868Z,3.50
2023-04-23T11:15:16.935Z,3.42
2023-04-23T11:17:43.616Z,3.50
2023-04-23T11:20:21.000Z,3.55
2023-04-23T11:22:52.052Z,3.50
2023-04-23T11:25:30.508Z,3.70
2023-04-23T11:28:01.514Z,3.53
2023-04-23T11:30:29.704Z,3.75
2023-04-23T11:32:57.812Z,3.72
2023-04-23T11:35:30.428Z,5.03
2023-04-23T11:37:57.226Z,4.25
2023-04-23T11:40:24.388Z,3.80
2023-04-23T11:42:57.711Z,3.65
2023-04-23T11:45:26.521Z,3.83
2023-04-23T11:47:57.736Z,4.10
2023-04-23T11:50:33.610Z,3.72
2023-04-23T11:53:09.121Z,3.90
2023-04-23T11:55:35.817Z,3.90
2023-04-23T11:58:03.251Z,3.88
2023-04-23T12:00:30.071Z,3.70
2023-04-23T12:02:58.796Z,3.70
2023-04-23T12:05:30.149Z,3.78
2023-04-23T12:08:17.025Z,3.72
2023-04-23T12:10:49.589Z,3.65
2023-04-23T12:13:17.047Z,3.30
2023-04-23T12:16:05.124Z,3.58
2023-04-23T12:18:40.367Z,3.47
2023-04-23T12:21:11.779Z,3.95
2023-04-23T12:23:44.810Z,3.78
2023-04-23T12:26:13.809Z,3.55
2023-04-23T12:28:54.056Z,3.33
2023-04-23T12:31:23.027Z,3.50
2023-04-23T12:34:07.033Z,3.40
2023-04-23T12:36:36.713Z,3.53
2023-04-23T12:39:32.137Z,3.80
2023-04-23T12:42:06.939Z,3.55
2023-04-23T12:44:35.547Z,5.10
2023-04-23T12:47:09.681Z,3.55
2023-04-23T12:49:38.188Z,3.70
2023-04-23T12:52:06.591Z,3.40
2023-04-23T12:54:37.405Z,3.28
2023-04-23T12:57:06.105Z,3.25
2023-04-23T12:59:33.350Z,3.65
2023-04-23T13:02:03.835Z,4.10
2023-04-23T13:04:32.090Z,3.30
2023-04-23T13:06:58.750Z,3.50
2023-04-23T13:09:39.506Z,3.65
2023-04-23T13:12:06.355Z,3.97
2023-04-23T13:14:33.053Z,3.70
2023-04-23T13:16:59.815Z,3.40
2023-04-23T13:19:26.581Z,3.40
2023-04-23T13:21:53.865Z,3.40
2023-04-23T13:24:20.648Z,3.58
2023-04-23T13:26:47.428Z,3.30
2023-04-23T13:29:14.074Z,3.22
2023-04-23T13:31:41.119Z,3.30
2023-04-23T13:34:08.244Z,4.30
2023-04-23T13:36:34.871Z,3.15
2023-04-23T13:39:01.604Z,3.40
2023-04-23T13:41:28.392Z,3.63
2023-04-23T13:43:55.003Z,3.17
2023-04-23T13:46:21.842Z,3.00
2023-04-23T13:48:48.475Z,3.00
2023-04-23T13:51:33.014Z,3.40
2023-04-23T13:54:01.562Z,3.35
2023-04-23T13:56:30.121Z,2.97
2023-04-23T13:59:17.947Z,3.42
2023-04-23T14:01:47.220Z,3.25
2023-04-23T14:04:14.048Z,3.38
2023-04-23T14:06:40.807Z,3.70
2023-04-23T14:09:07.455Z,3.40
2023-04-23T14:11:34.176Z,3.00
2023-04-23T14:14:01.330Z,2.78
2023-04-23T14:16:28.038Z,3.28
2023-04-23T14:18:54.756Z,3.67
2023-04-23T14:21:22.677Z,3.25
2023-04-23T14:23:50.570Z,3.00
2023-04-23T14:26:47.364Z,2.80
2023-04-23T14:29:36.145Z,3.00
2023-04-23T14:32:02.872Z,3.30
2023-04-23T14:34:29.652Z,3.20
2023-04-23T14:36:56.345Z,3.15
2023-04-23T14:39:23.493Z,3.25
2023-04-23T14:41:50.242Z,3.80
2023-04-23T14:44:17.076Z,3.33
2023-04-23T14:46:44.287Z,3.88
2023-04-23T14:49:10.983Z,3.25
2023-04-23T14:51:37.848Z,2.88
2023-04-23T14:54:05.018Z,3.00
2023-04-23T14:56:31.709Z,3.67
2023-04-23T14:58:58.360Z,3.20
2023-04-23T15:01:25.047Z,3.58
2023-04-23T15:03:53.197Z,3.10
2023-04-23T15:06:20.091Z,3.00
2023-04-23T15:08:46.761Z,3.30
2023-04-23T15:11:13.694Z,2.95
2023-04-23T15:14:03.911Z,3.20
2023-04-23T15:16:46.873Z,3.42
2023-04-23T15:19:14.938Z,3.20
2023-04-23T15:21:43.210Z,3.15
2023-04-23T15:24:10.096Z,3.30
2023-04-23T15:26:37.182Z,3.28
2023-04-23T15:29:05.058Z,3.33
2023-04-23T15:31:31.726Z,3.55
2023-04-23T15:33:58.546Z,3.95
2023-04-23T15:36:25.186Z,4.05
2023-04-23T15:38:51.852Z,3.58
2023-04-23T15:41:18.562Z,3.80
2023-04-23T15:43:46.522Z,3.78
2023-04-23T15:46:13.384Z,3.70
2023-04-23T15:48:40.127Z,3.53
2023-04-23T15:51:07.515Z,3.50
2023-04-23T15:53:34.172Z,3.22
2023-04-23T15:56:00.800Z,3.60
2023-04-23T15:58:27.487Z,3.20
2023-04-23T16:00:54.270Z,3.30
2023-04-23T16:03:21.467Z,3.30
2023-04-23T16:05:50.637Z,3.10
2023-04-23T16:08:17.501Z,3.20
2023-04-23T16:10:44.276Z,3.20
2023-04-23T16:13:10.981Z,3.22
2023-04-23T16:15:37.694Z,2.70
2023-04-23T16:18:06.189Z,2.80
2023-04-23T16:20:33.384Z,2.90
2023-04-23T16:23:00.119Z,3.33
2023-04-23T16:25:26.830Z,3.28
2023-04-23T16:27:53.686Z,2.70
2023-04-23T16:30:20.308Z,3.05
2023-04-23T16:32:47.065Z,3.20
2023-04-23T16:35:13.773Z,2.90
2023-04-23T16:37:40.482Z,3.00
2023-04-23T16:40:07.701Z,2.88
2023-04-23T16:42:34.466Z,3.30
2023-04-23T16:45:01.086Z,3.10
2023-04-23T16:47:29.407Z,3.20
2023-04-23T16:49:56.066Z,3.30
2023-04-23T16:52:22.756Z,3.20
2023-04-23T16:54:49.603Z,2.88
2023-04-23T16:57:17.249Z,3.30
2023-04-23T16:59:43.967Z,3.22
2023-04-23T17:02:10.714Z,3.65
2023-04-23T17:04:37.574Z,3.42
2023-04-23T17:07:04.361Z,3.38
2023-04-23T17:09:31.747Z,3.13
2023-04-23T17:11:59.410Z,3.33
2023-04-23T17:14:26.659Z,3.53
2023-04-23T17:16:53.317Z,3.75
2023-04-23T17:19:19.997Z,7.25
2023-04-23T17:21:46.686Z,6.72
2023-04-23T17:24:13.431Z,16.77
2023-04-23T17:26:40.083Z,5.97
2023-04-23T17:29:07.080Z,7.43
2023-04-23T17:31:35.412Z,4.25
2023-04-23T17:34:03.511Z,5.07
2023-04-23T17:36:30.231Z,6.47
2023-04-23T17:38:56.908Z,6.20
2023-04-23T17:41:23.571Z,10.60
2023-04-23T17:43:50.605Z,169.17
2023-04-23T17:46:17.350Z,78.67
2023-04-23T17:48:44.911Z,102.70
2023-04-23T17:51:11.645Z,113.43
2023-04-23T17:53:38.438Z,41.27
2023-04-23T17:56:05.157Z,49.63
2023-04-23T17:58:31.940Z,24.30
2023-04-23T18:00:58.790Z,20.07
2023-04-23T18:03:26.718Z,9.77
2023-04-23T18:05:54.132Z,7.33
2023-04-23T18:08:21.495Z,23.77
2023-04-23T18:10:48.405Z,21.17
2023-04-23T18:13:15.189Z,15.10
2023-04-23T18:15:42.367Z,6.70
2023-04-23T18:18:09.314Z,6.50
2023-04-23T18:20:38.586Z,5.63
2023-04-23T18:23:06.785Z,4.90
2023-04-23T18:25:33.568Z,4.60
2023-04-23T18:28:00.382Z,4.10
2023-04-23T18:30:27.049Z,3.90
2023-04-23T18:33:07.872Z,4.10
2023-04-23T18:35:34.872Z,3.80
2023-04-23T18:38:07.825Z,4.00
2023-04-23T18:40:34.565Z,4.00
2023-04-23T18:43:01.451Z,10.10
2023-04-23T18:45:28.264Z,32.63
2023-04-23T18:48:03.749Z,55.53
2023-04-23T18:50:50.207Z,82.53
2023-04-23T18:53:16.930Z,80.93
2023-04-23T18:55:43.576Z,52.73
2023-04-23T18:58:10.709Z,13.03
2023-04-23T19:00:37.400Z,6.60
2023-04-23T19:03:12.083Z,7.40
2023-04-23T19:05:46.712Z,8.97
2023-04-23T19:08:13.439Z,5.90
2023-04-23T19:10:40.104Z,4.40
2023-04-23T19:13:06.766Z,5.30
2023-04-23T19:15:33.502Z,5.20
2023-04-23T19:18:00.309Z,5.37
2023-04-23T19:20:27.075Z,4.70
2023-04-23T19:22:53.660Z,5.20
2023-04-23T19:25:20.282Z,5.83
2023-04-23T19:27:46.900Z,5.97
2023-04-23T19:30:13.744Z,7.47
2023-04-23T19:32:40.511Z,6.70
2023-04-23T19:35:07.468Z,5.77
2023-04-23T19:37:34.130Z,5.30
2023-04-23T19:40:00.985Z,4.43
2023-04-23T19:42:30.034Z,5.00
2023-04-23T19:44:56.936Z,4.80
2023-04-23T19:47:23.706Z,4.40
2023-04-23T19:49:51.421Z,4.50
2023-04-23T19:52:22.368Z,3.90
2023-04-23T19:54:49.900Z,4.17
2023-04-23T19:57:19.191Z,7.87
2023-04-23T19:59:46.407Z,5.93
2023-04-23T20:02:13.311Z,4.27
2023-04-23T20:04:41.390Z,3.80
2023-04-23T20:07:08.269Z,3.97
2023-04-23T20:09:35.503Z,3.63
2023-04-23T20:12:02.953Z,3.37
2023-04-23T20:14:30.027Z,2.87
2023-04-23T20:16:57.324Z,2.93
2023-04-23T20:19:26.170Z,2.50
2023-04-23T20:21:52.975Z,2.60
2023-04-23T20:24:21.493Z,5.63
2023-04-23T20:26:48.593Z,3.77
2023-04-23T20:29:15.341Z,2.70
2023-04-23T20:31:42.424Z,5.73
2023-04-23T20:34:11.047Z,2.70
2023-04-23T20:36:38.958Z,1.70
2023-04-23T20:39:05.752Z,1.80
2023-04-23T20:41:34.453Z,2.10
2023-04-23T20:44:02.042Z,2.00
2023-04-23T20:46:30.495Z,2.70
2023-04-23T20:48:59.316Z,2.30
2023-04-23T20:51:28.611Z,27.17
2023-04-23T20:53:57.552Z,9.63
2023-04-23T20:56:24.246Z,6.80
2023-04-23T20:58:50.901Z,4.60
2023-04-23T21:01:17.593Z,3.00
2023-04-23T21:03:44.357Z,2.30
2023-04-23T21:06:11.612Z,2.40
2023-04-23T21:08:41.305Z,3.00
2023-04-23T21:11:14.596Z,3.27
2023-04-23T21:13:42.365Z,3.10
2023-04-23T21:16:09.361Z,3.73
2023-04-23T21:18:36.139Z,3.47
2023-04-23T21:21:02.773Z,4.00
2023-04-23T21:23:30.049Z,3.20
2023-04-23T21:25:57.214Z,4.67
2023-04-23T21:28:24.003Z,4.13
2023-04-23T21:30:55.605Z,4.67
2023-04-23T21:33:24.386Z,3.77
2023-04-23T21:35:52.343Z,3.73
2023-04-23T21:38:20.154Z,3.53
2023-04-23T21:40:46.964Z,3.50
2023-04-23T21:43:13.954Z,3.57
2023-04-23T21:45:40.624Z,3.37
2023-04-23T21:48:07.558Z,3.40
2023-04-23T21:50:34.341Z,3.40
2023-04-23T21:53:03.275Z,3.70
2023-04-23T21:55:31.710Z,3.93
2023-04-23T21:58:09.820Z,3.90
2023-04-23T22:00:40.984Z,5.57
2023-04-23T22:03:09.144Z,4.37
2023-04-23T22:05:37.563Z,5.40
2023-04-23T22:08:06.842Z,5.73
2023-04-23T22:10:33.784Z,4.43
2023-04-23T22:13:00.611Z,3.60
2023-04-23T22:15:28.918Z,3.70
2023-04-23T22:17:59.934Z,4.07
2023-04-23T22:20:27.240Z,4.10
2023-04-23T22:22:53.871Z,5.20
2023-04-23T22:25:20.590Z,4.10
2023-04-23T22:27:47.494Z,4.50
2023-04-23T22:30:14.389Z,5.60
2023-04-23T22:32:41.169Z,4.83
2023-04-23T22:35:08.548Z,4.90
2023-04-23T22:37:35.848Z,4.30
2023-04-23T22:40:04.350Z,4.33
2023-04-23T22:42:31.345Z,4.50
2023-04-23T22:44:58.140Z,4.37
2023-04-23T22:47:25.284Z,4.70
2023-04-23T22:49:51.988Z,4.27
2023-04-23T22:52:18.847Z,6.23
2023-04-23T22:54:46.068Z,4.90
2023-04-23T22:57:12.797Z,4.50
2023-04-23T22:59:39.997Z,4.73
2023-04-23T23:02:07.484Z,4.53
2023-04-23T23:04:37.831Z,4.40
2023-04-23T23:07:08.160Z,4.30
2023-04-23T23:09:35.164Z,4.70
2023-04-23T23:12:02.938Z,4.20
2023-04-23T23:14:30.161Z,4.20
2023-04-23T23:16:57.349Z,3.90
2023-04-23T23:19:26.557Z,4.13
2023-04-23T23:21:53.259Z,3.73
2023-04-23T23:24:20.025Z,3.60
2023-04-23T23:26:46.783Z,3.93
2023-04-23T23:29:13.637Z,3.80
2023-04-23T23:31:40.447Z,4.00
2023-04-23T23:34:07.152Z,3.80
2023-04-23T23:36:34.225Z,3.87
2023-04-23T23:39:01.180Z,3.60
2023-04-23T23:41:27.957Z,3.87
2023-04-23T23:43:54.827Z,4.10
2023-04-23T23:46:21.974Z,3.80
2023-04-23T23:48:48.836Z,4.03
2023-04-23T23:51:16.310Z,4.20
2023-04-23T23:53:43.054Z,3.90
2023-04-23T23:56:09.762Z,4.10
2023-04-23T23:58:36.550Z,4.03
